sensor_id;sensor_type;location;lat;lon;timestamp;P1;durP1;ratioP1;P2;durP2;ratioP2
68577;SDS011;61668;45.388;11.784;2022-10-14T00:01:25;30.50;;;14.60;;
68577;SDS011;61668;45.388;11.784;2022-10-14T00:03:51;25.80;;;13.70;;
68577;SDS011;61668;45.388;11.784;2022-10-14T00:06:27;25.90;;;12.70;;
68577;SDS011;61668;45.388;11.784;2022-10-14T00:08:57;27.20;;;13.50;;
68577;SDS011;61668;45.388;11.784;2022-10-14T00:11:27;28.10;;;13.40;;
68577;SDS011;61668;45.388;11.784;2022-10-14T00:13:57;27.10;;;13.30;;
68577;SDS011;61668;45.388;11.784;2022-10-14T00:16:30;25.80;;;12.90;;
68577;SDS011;61668;45.388;11.784;2022-10-14T00:18:58;27.50;;;14.20;;
68577;SDS011;61668;45.388;11.784;2022-10-14T00:21:24;25.90;;;13.00;;
68577;SDS011;61668;45.388;11.784;2022-10-14T00:23:50;26.10;;;13.20;;
68577;SDS011;61668;45.388;11.784;2022-10-14T00:26:18;25.60;;;12.20;;
68577;SDS011;61668;45.388;11.784;2022-10-14T00:28:46;27.30;;;12.60;;
68577;SDS011;61668;45.388;11.784;2022-10-14T00:31:12;24.40;;;12.50;;
68577;SDS011;61668;45.388;11.784;2022-10-14T00:33:38;24.40;;;12.60;;
68577;SDS011;61668;45.388;11.784;2022-10-14T00:36:05;25.50;;;13.60;;
68577;SDS011;61668;45.388;11.784;2022-10-14T00:38:32;26.60;;;11.60;;
68577;SDS011;61668;45.388;11.784;2022-10-14T00:40:58;31.40;;;15.00;;
68577;SDS011;61668;45.388;11.784;2022-10-14T00:43:25;29.50;;;16.10;;
68577;SDS011;61668;45.388;11.784;2022-10-14T00:45:51;29.00;;;15.50;;
68577;SDS011;61668;45.388;11.784;2022-10-14T00:48:18;27.50;;;14.10;;
68577;SDS011;61668;45.388;11.784;2022-10-14T00:50:48;26.20;;;13.50;;
68577;SDS011;61668;45.388;11.784;2022-10-14T00:53:15;26.60;;;11.60;;
68577;SDS011;61668;45.388;11.784;2022-10-14T00:55:41;28.00;;;13.40;;
68577;SDS011;61668;45.388;11.784;2022-10-14T00:58:07;27.60;;;13.90;;
68577;SDS011;61668;45.388;11.784;2022-10-14T01:00:33;26.10;;;13.80;;
68577;SDS011;61668;45.388;11.784;2022-10-14T01:02:59;26.90;;;12.10;;
68577;SDS011;61668;45.388;11.784;2022-10-14T01:05:30;30.20;;;15.50;;
68577;SDS011;61668;45.388;11.784;2022-10-14T01:08:09;28.80;;;14.50;;
68577;SDS011;61668;45.388;11.784;2022-10-14T01:10:54;21.70;;;11.20;;
68577;SDS011;61668;45.388;11.784;2022-10-14T01:13:28;23.80;;;12.50;;
68577;SDS011;61668;45.388;11.784;2022-10-14T01:16:26;28.40;;;14.20;;
68577;SDS011;61668;45.388;11.784;2022-10-14T01:21:36;25.00;;;12.20;;
68577;SDS011;61668;45.388;11.784;2022-10-14T01:32:29;28.20;;;13.60;;
68577;SDS011;61668;45.388;11.784;2022-10-14T01:38:09;26.80;;;12.10;;
68577;SDS011;61668;45.388;11.784;2022-10-14T01:40:59;23.30;;;12.10;;
68577;SDS011;61668;45.388;11.784;2022-10-14T01:43:49;22.60;;;11.00;;
68577;SDS011;61668;45.388;11.784;2022-10-14T01:46:17;25.60;;;12.40;;
68577;SDS011;61668;45.388;11.784;2022-10-14T01:48:47;22.00;;;11.30;;
68577;SDS011;61668;45.388;11.784;2022-10-14T01:51:20;23.20;;;12.20;;
68577;SDS011;61668;45.388;11.784;2022-10-14T01:53:56;24.60;;;12.60;;
68577;SDS011;61668;45.388;11.784;2022-10-14T01:56:27;28.90;;;12.60;;
68577;SDS011;61668;45.388;11.784;2022-10-14T01:58:55;28.90;;;12.90;;
68577;SDS011;61668;45.388;11.784;2022-10-14T02:01:22;26.90;;;12.80;;
68577;SDS011;61668;45.388;11.784;2022-10-14T02:03:48;26.60;;;13.90;;
68577;SDS011;61668;45.388;11.784;2022-10-14T02:06:39;30.30;;;13.30;;
68577;SDS011;61668;45.388;11.784;2022-10-14T02:14:55;24.20;;;11.90;;
68577;SDS011;61668;45.388;11.784;2022-10-14T02:17:30;28.10;;;13.20;;
68577;SDS011;61668;45.388;11.784;2022-10-14T02:20:26;28.10;;;14.50;;
68577;SDS011;61668;45.388;11.784;2022-10-14T02:22:58;26.80;;;13.90;;
68577;SDS011;61668;45.388;11.784;2022-10-14T02:25:33;24.20;;;12.10;;
68577;SDS011;61668;45.388;11.784;2022-10-14T02:28:02;25.60;;;11.50;;
68577;SDS011;61668;45.388;11.784;2022-10-14T02:30:31;27.70;;;13.00;;
68577;SDS011;61668;45.388;11.784;2022-10-14T02:33:05;27.80;;;14.30;;
68577;SDS011;61668;45.388;11.784;2022-10-14T02:35:32;26.60;;;13.60;;
68577;SDS011;61668;45.388;11.784;2022-10-14T02:37:59;28.00;;;14.20;;
68577;SDS011;61668;45.388;11.784;2022-10-14T02:40:36;27.20;;;13.70;;
68577;SDS011;61668;45.388;11.784;2022-10-14T02:43:03;27.40;;;13.80;;
68577;SDS011;61668;45.388;11.784;2022-10-14T02:45:32;26.50;;;12.10;;
68577;SDS011;61668;45.388;11.784;2022-10-14T02:47:59;26.70;;;13.60;;
68577;SDS011;61668;45.388;11.784;2022-10-14T02:50:24;28.90;;;15.40;;
68577;SDS011;61668;45.388;11.784;2022-10-14T02:52:50;27.20;;;14.30;;
68577;SDS011;61668;45.388;11.784;2022-10-14T02:55:15;30.90;;;15.30;;
68577;SDS011;61668;45.388;11.784;2022-10-14T02:57:41;28.70;;;13.90;;
68577;SDS011;61668;45.388;11.784;2022-10-14T03:00:07;30.80;;;15.50;;
68577;SDS011;61668;45.388;11.784;2022-10-14T03:02:33;27.70;;;14.20;;
68577;SDS011;61668;45.388;11.784;2022-10-14T03:04:58;29.80;;;14.80;;
68577;SDS011;61668;45.388;11.784;2022-10-14T03:07:24;27.10;;;13.70;;
68577;SDS011;61668;45.388;11.784;2022-10-14T03:09:50;28.60;;;14.10;;
68577;SDS011;61668;45.388;11.784;2022-10-14T03:12:15;28.10;;;12.90;;
68577;SDS011;61668;45.388;11.784;2022-10-14T03:14:41;27.70;;;14.30;;
68577;SDS011;61668;45.388;11.784;2022-10-14T03:17:07;28.70;;;14.80;;
68577;SDS011;61668;45.388;11.784;2022-10-14T03:19:35;24.20;;;13.50;;
68577;SDS011;61668;45.388;11.784;2022-10-14T03:22:01;25.50;;;13.90;;
68577;SDS011;61668;45.388;11.784;2022-10-14T03:24:27;26.80;;;13.50;;
68577;SDS011;61668;45.388;11.784;2022-10-14T03:26:52;30.70;;;13.50;;
68577;SDS011;61668;45.388;11.784;2022-10-14T03:29:18;28.70;;;13.40;;
68577;SDS011;61668;45.388;11.784;2022-10-14T03:31:43;25.60;;;12.40;;
68577;SDS011;61668;45.388;11.784;2022-10-14T03:34:09;27.10;;;13.70;;
68577;SDS011;61668;45.388;11.784;2022-10-14T03:36:35;27.70;;;12.90;;
68577;SDS011;61668;45.388;11.784;2022-10-14T03:39:00;25.60;;;13.60;;
68577;SDS011;61668;45.388;11.784;2022-10-14T03:41:26;31.00;;;12.90;;
68577;SDS011;61668;45.388;11.784;2022-10-14T03:43:51;27.80;;;13.90;;
68577;SDS011;61668;45.388;11.784;2022-10-14T03:46:17;26.20;;;13.80;;
68577;SDS011;61668;45.388;11.784;2022-10-14T03:48:42;27.50;;;13.50;;
68577;SDS011;61668;45.388;11.784;2022-10-14T03:51:08;24.10;;;12.20;;
68577;SDS011;61668;45.388;11.784;2022-10-14T03:53:33;25.50;;;12.60;;
68577;SDS011;61668;45.388;11.784;2022-10-14T03:55:59;25.50;;;12.30;;
68577;SDS011;61668;45.388;11.784;2022-10-14T03:58:24;28.50;;;12.90;;
68577;SDS011;61668;45.388;11.784;2022-10-14T04:00:50;27.20;;;12.10;;
68577;SDS011;61668;45.388;11.784;2022-10-14T04:03:15;25.30;;;13.10;;
68577;SDS011;61668;45.388;11.784;2022-10-14T04:05:41;23.80;;;12.10;;
68577;SDS011;61668;45.388;11.784;2022-10-14T04:08:07;25.80;;;13.20;;
68577;SDS011;61668;45.388;11.784;2022-10-14T04:10:32;25.00;;;13.40;;
68577;SDS011;61668;45.388;11.784;2022-10-14T04:12:58;27.40;;;13.50;;
68577;SDS011;61668;45.388;11.784;2022-10-14T04:15:23;27.00;;;13.80;;
68577;SDS011;61668;45.388;11.784;2022-10-14T04:17:49;30.20;;;14.40;;
68577;SDS011;61668;45.388;11.784;2022-10-14T04:20:15;29.80;;;14.80;;
68577;SDS011;61668;45.388;11.784;2022-10-14T04:22:41;27.70;;;14.00;;
68577;SDS011;61668;45.388;11.784;2022-10-14T04:25:07;28.50;;;14.10;;
68577;SDS011;61668;45.388;11.784;2022-10-14T04:27:33;27.20;;;13.20;;
68577;SDS011;61668;45.388;11.784;2022-10-14T04:29:59;27.90;;;14.40;;
68577;SDS011;61668;45.388;11.784;2022-10-14T04:32:25;27.80;;;14.10;;
68577;SDS011;61668;45.388;11.784;2022-10-14T04:34:50;25.90;;;14.70;;
68577;SDS011;61668;45.388;11.784;2022-10-14T04:37:16;26.10;;;13.50;;
68577;SDS011;61668;45.388;11.784;2022-10-14T04:39:42;27.40;;;13.60;;
68577;SDS011;61668;45.388;11.784;2022-10-14T04:42:08;25.70;;;12.50;;
68577;SDS011;61668;45.388;11.784;2022-10-14T04:44:33;26.40;;;12.60;;
68577;SDS011;61668;45.388;11.784;2022-10-14T04:46:59;27.40;;;12.90;;
68577;SDS011;61668;45.388;11.784;2022-10-14T04:49:24;23.50;;;12.70;;
68577;SDS011;61668;45.388;11.784;2022-10-14T04:51:50;25.30;;;12.40;;
68577;SDS011;61668;45.388;11.784;2022-10-14T04:54:16;24.90;;;12.00;;
68577;SDS011;61668;45.388;11.784;2022-10-14T04:56:41;28.20;;;13.90;;
68577;SDS011;61668;45.388;11.784;2022-10-14T04:59:07;26.10;;;13.20;;
68577;SDS011;61668;45.388;11.784;2022-10-14T05:01:32;25.50;;;12.50;;
68577;SDS011;61668;45.388;11.784;2022-10-14T05:03:58;24.30;;;12.80;;
68577;SDS011;61668;45.388;11.784;2022-10-14T05:06:23;28.00;;;13.70;;
68577;SDS011;61668;45.388;11.784;2022-10-14T05:08:49;23.50;;;11.80;;
68577;SDS011;61668;45.388;11.784;2022-10-14T05:11:15;26.90;;;12.50;;
68577;SDS011;61668;45.388;11.784;2022-10-14T05:13:40;24.80;;;11.00;;
68577;SDS011;61668;45.388;11.784;2022-10-14T05:16:06;27.00;;;12.20;;
68577;SDS011;61668;45.388;11.784;2022-10-14T05:18:33;29.40;;;12.60;;
68577;SDS011;61668;45.388;11.784;2022-10-14T05:20:58;27.00;;;11.70;;
68577;SDS011;61668;45.388;11.784;2022-10-14T05:23:25;26.00;;;12.70;;
68577;SDS011;61668;45.388;11.784;2022-10-14T05:25:51;25.70;;;11.70;;
68577;SDS011;61668;45.388;11.784;2022-10-14T05:28:17;25.90;;;12.20;;
68577;SDS011;61668;45.388;11.784;2022-10-14T05:30:43;24.90;;;11.20;;
68577;SDS011;61668;45.388;11.784;2022-10-14T05:33:09;24.80;;;12.00;;
68577;SDS011;61668;45.388;11.784;2022-10-14T05:35:35;21.80;;;10.90;;
68577;SDS011;61668;45.388;11.784;2022-10-14T05:38:02;24.60;;;11.50;;
68577;SDS011;61668;45.388;11.784;2022-10-14T05:40:28;24.90;;;11.20;;
68577;SDS011;61668;45.388;11.784;2022-10-14T05:42:54;26.10;;;10.80;;
68577;SDS011;61668;45.388;11.784;2022-10-14T05:45:19;25.30;;;11.70;;
68577;SDS011;61668;45.388;11.784;2022-10-14T05:47:45;24.00;;;11.20;;
68577;SDS011;61668;45.388;11.784;2022-10-14T05:50:11;26.80;;;10.70;;
68577;SDS011;61668;45.388;11.784;2022-10-14T05:52:38;23.10;;;10.70;;
68577;SDS011;61668;45.388;11.784;2022-10-14T05:55:06;25.40;;;12.50;;
68577;SDS011;61668;45.388;11.784;2022-10-14T05:57:32;22.10;;;10.80;;
68577;SDS011;61668;45.388;11.784;2022-10-14T05:59:59;22.60;;;10.10;;
68577;SDS011;61668;45.388;11.784;2022-10-14T06:02:25;23.70;;;10.60;;
68577;SDS011;61668;45.388;11.784;2022-10-14T06:04:51;23.50;;;11.60;;
68577;SDS011;61668;45.388;11.784;2022-10-14T06:07:17;26.80;;;10.30;;
68577;SDS011;61668;45.388;11.784;2022-10-14T06:09:42;20.30;;;10.70;;
68577;SDS011;61668;45.388;11.784;2022-10-14T06:12:08;24.00;;;11.90;;
68577;SDS011;61668;45.388;11.784;2022-10-14T06:14:34;24.50;;;10.60;;
68577;SDS011;61668;45.388;11.784;2022-10-14T06:17:03;22.90;;;11.40;;
68577;SDS011;61668;45.388;11.784;2022-10-14T06:19:30;23.90;;;10.10;;
68577;SDS011;61668;45.388;11.784;2022-10-14T06:21:56;20.70;;;9.90;;
68577;SDS011;61668;45.388;11.784;2022-10-14T06:24:21;23.60;;;10.20;;
68577;SDS011;61668;45.388;11.784;2022-10-14T06:26:47;22.90;;;9.50;;
68577;SDS011;61668;45.388;11.784;2022-10-14T06:29:13;21.80;;;9.50;;
68577;SDS011;61668;45.388;11.784;2022-10-14T06:31:38;22.10;;;9.50;;
68577;SDS011;61668;45.388;11.784;2022-10-14T06:34:05;27.30;;;10.60;;
68577;SDS011;61668;45.388;11.784;2022-10-14T06:36:31;21.50;;;9.60;;
68577;SDS011;61668;45.388;11.784;2022-10-14T06:38:57;24.60;;;10.70;;
68577;SDS011;61668;45.388;11.784;2022-10-14T06:41:23;21.10;;;9.70;;
68577;SDS011;61668;45.388;11.784;2022-10-14T06:43:49;27.90;;;11.70;;
68577;SDS011;61668;45.388;11.784;2022-10-14T06:46:14;24.60;;;10.60;;
68577;SDS011;61668;45.388;11.784;2022-10-14T06:48:40;23.50;;;9.70;;
68577;SDS011;61668;45.388;11.784;2022-10-14T06:51:05;24.50;;;10.90;;
68577;SDS011;61668;45.388;11.784;2022-10-14T06:53:31;22.30;;;9.70;;
68577;SDS011;61668;45.388;11.784;2022-10-14T06:56:01;22.90;;;10.00;;
68577;SDS011;61668;45.388;11.784;2022-10-14T06:58:29;21.80;;;10.60;;
68577;SDS011;61668;45.388;11.784;2022-10-14T07:01:00;19.90;;;9.30;;
68577;SDS011;61668;45.388;11.784;2022-10-14T07:03:29;24.50;;;9.90;;
68577;SDS011;61668;45.388;11.784;2022-10-14T07:05:55;19.80;;;9.00;;
68577;SDS011;61668;45.388;11.784;2022-10-14T07:08:21;22.10;;;9.30;;
68577;SDS011;61668;45.388;11.784;2022-10-14T07:10:47;25.20;;;10.50;;
68577;SDS011;61668;45.388;11.784;2022-10-14T07:13:13;24.10;;;10.00;;
68577;SDS011;61668;45.388;11.784;2022-10-14T07:15:39;22.70;;;10.10;;
68577;SDS011;61668;45.388;11.784;2022-10-14T07:18:05;22.10;;;9.70;;
68577;SDS011;61668;45.388;11.784;2022-10-14T07:20:32;22.50;;;9.90;;
68577;SDS011;61668;45.388;11.784;2022-10-14T07:22:58;23.00;;;9.60;;
68577;SDS011;61668;45.388;11.784;2022-10-14T07:25:25;23.40;;;10.80;;
68577;SDS011;61668;45.388;11.784;2022-10-14T07:27:51;22.10;;;10.20;;
68577;SDS011;61668;45.388;11.784;2022-10-14T07:30:17;24.00;;;9.50;;
68577;SDS011;61668;45.388;11.784;2022-10-14T07:32:43;27.00;;;11.40;;
68577;SDS011;61668;45.388;11.784;2022-10-14T07:35:09;24.30;;;11.30;;
68577;SDS011;61668;45.388;11.784;2022-10-14T07:37:34;22.50;;;12.00;;
68577;SDS011;61668;45.388;11.784;2022-10-14T07:40:00;21.60;;;9.70;;
68577;SDS011;61668;45.388;11.784;2022-10-14T07:42:25;25.20;;;12.50;;
68577;SDS011;61668;45.388;11.784;2022-10-14T07:44:51;27.30;;;12.30;;
68577;SDS011;61668;45.388;11.784;2022-10-14T07:47:19;27.50;;;12.20;;
68577;SDS011;61668;45.388;11.784;2022-10-14T07:49:45;25.50;;;12.00;;
68577;SDS011;61668;45.388;11.784;2022-10-14T07:52:10;23.50;;;11.40;;
68577;SDS011;61668;45.388;11.784;2022-10-14T07:54:36;24.10;;;11.20;;
68577;SDS011;61668;45.388;11.784;2022-10-14T07:57:02;21.70;;;10.70;;
68577;SDS011;61668;45.388;11.784;2022-10-14T07:59:28;22.80;;;11.30;;
68577;SDS011;61668;45.388;11.784;2022-10-14T08:01:54;22.60;;;10.70;;
68577;SDS011;61668;45.388;11.784;2022-10-14T08:04:21;22.00;;;10.70;;
68577;SDS011;61668;45.388;11.784;2022-10-14T08:06:47;23.80;;;10.70;;
68577;SDS011;61668;45.388;11.784;2022-10-14T08:09:13;24.60;;;13.20;;
68577;SDS011;61668;45.388;11.784;2022-10-14T08:11:39;25.10;;;12.90;;
68577;SDS011;61668;45.388;11.784;2022-10-14T08:14:05;24.20;;;13.30;;
68577;SDS011;61668;45.388;11.784;2022-10-14T08:16:33;24.20;;;13.30;;
68577;SDS011;61668;45.388;11.784;2022-10-14T08:19:02;24.30;;;12.70;;
68577;SDS011;61668;45.388;11.784;2022-10-14T08:21:30;23.20;;;12.90;;
68577;SDS011;61668;45.388;11.784;2022-10-14T08:23:56;22.70;;;13.40;;
68577;SDS011;61668;45.388;11.784;2022-10-14T08:26:27;23.50;;;13.70;;
68577;SDS011;61668;45.388;11.784;2022-10-14T08:29:02;24.80;;;12.60;;
68577;SDS011;61668;45.388;11.784;2022-10-14T08:31:29;23.30;;;13.70;;
68577;SDS011;61668;45.388;11.784;2022-10-14T08:33:54;26.30;;;14.30;;
68577;SDS011;61668;45.388;11.784;2022-10-14T08:36:21;25.40;;;14.70;;
68577;SDS011;61668;45.388;11.784;2022-10-14T08:38:47;25.80;;;15.60;;
68577;SDS011;61668;45.388;11.784;2022-10-14T08:44:21;24.50;;;14.60;;
68577;SDS011;61668;45.388;11.784;2022-10-14T08:46:52;26.20;;;15.90;;
68577;SDS011;61668;45.388;11.784;2022-10-14T08:49:29;23.50;;;13.50;;
68577;SDS011;61668;45.388;11.784;2022-10-14T08:54:40;23.90;;;13.40;;
68577;SDS011;61668;45.388;11.784;2022-10-14T08:57:16;23.70;;;14.30;;
68577;SDS011;61668;45.388;11.784;2022-10-14T08:59:44;26.40;;;15.50;;
68577;SDS011;61668;45.388;11.784;2022-10-14T09:02:18;25.40;;;15.70;;
68577;SDS011;61668;45.388;11.784;2022-10-14T09:04:48;24.20;;;14.70;;
68577;SDS011;61668;45.388;11.784;2022-10-14T09:07:16;25.50;;;16.00;;
68577;SDS011;61668;45.388;11.784;2022-10-14T09:09:46;26.30;;;16.10;;
68577;SDS011;61668;45.388;11.784;2022-10-14T09:12:27;23.90;;;14.90;;
68577;SDS011;61668;45.388;11.784;2022-10-14T09:18:09;23.80;;;14.30;;
68577;SDS011;61668;45.388;11.784;2022-10-14T09:21:01;23.30;;;14.10;;
68577;SDS011;61668;45.388;11.784;2022-10-14T09:23:36;24.60;;;14.90;;
68577;SDS011;61668;45.388;11.784;2022-10-14T09:26:07;23.60;;;13.80;;
68577;SDS011;61668;45.388;11.784;2022-10-14T09:28:42;24.10;;;14.90;;
68577;SDS011;61668;45.388;11.784;2022-10-14T09:31:12;22.80;;;14.70;;
68577;SDS011;61668;45.388;11.784;2022-10-14T09:33:40;24.90;;;16.20;;
68577;SDS011;61668;45.388;11.784;2022-10-14T09:36:20;23.20;;;13.90;;
68577;SDS011;61668;45.388;11.784;2022-10-14T09:38:50;25.50;;;16.20;;
68577;SDS011;61668;45.388;11.784;2022-10-14T09:41:21;25.70;;;15.30;;
68577;SDS011;61668;45.388;11.784;2022-10-14T09:44:23;28.40;;;16.90;;
68577;SDS011;61668;45.388;11.784;2022-10-14T09:47:02;23.60;;;15.10;;
68577;SDS011;61668;45.388;11.784;2022-10-14T09:49:33;25.10;;;15.70;;
68577;SDS011;61668;45.388;11.784;2022-10-14T09:52:03;24.90;;;14.80;;
68577;SDS011;61668;45.388;11.784;2022-10-14T09:54:30;23.10;;;14.80;;
68577;SDS011;61668;45.388;11.784;2022-10-14T09:57:04;24.50;;;15.30;;
68577;SDS011;61668;45.388;11.784;2022-10-14T09:59:35;26.90;;;16.70;;
68577;SDS011;61668;45.388;11.784;2022-10-14T10:02:21;25.70;;;15.60;;
68577;SDS011;61668;45.388;11.784;2022-10-14T10:05:22;24.70;;;15.10;;
68577;SDS011;61668;45.388;11.784;2022-10-14T10:08:17;22.90;;;14.80;;
68577;SDS011;61668;45.388;11.784;2022-10-14T10:11:01;27.20;;;15.80;;
68577;SDS011;61668;45.388;11.784;2022-10-14T10:13:37;25.80;;;15.50;;
68577;SDS011;61668;45.388;11.784;2022-10-14T10:16:25;28.30;;;16.70;;
68577;SDS011;61668;45.388;11.784;2022-10-14T10:18:54;26.50;;;15.80;;
68577;SDS011;61668;45.388;11.784;2022-10-14T10:21:26;29.60;;;17.40;;
68577;SDS011;61668;45.388;11.784;2022-10-14T10:23:59;27.10;;;15.50;;
68577;SDS011;61668;45.388;11.784;2022-10-14T10:26:31;29.20;;;17.10;;
68577;SDS011;61668;45.388;11.784;2022-10-14T10:29:03;26.40;;;15.20;;
68577;SDS011;61668;45.388;11.784;2022-10-14T10:37:31;30.00;;;17.80;;
68577;SDS011;61668;45.388;11.784;2022-10-14T10:40:22;25.20;;;15.10;;
68577;SDS011;61668;45.388;11.784;2022-10-14T10:43:23;28.30;;;15.00;;
68577;SDS011;61668;45.388;11.784;2022-10-14T10:46:22;30.80;;;18.10;;
68577;SDS011;61668;45.388;11.784;2022-10-14T11:00:10;26.70;;;15.40;;
68577;SDS011;61668;45.388;11.784;2022-10-14T11:08:57;30.00;;;16.10;;
68577;SDS011;61668;45.388;11.784;2022-10-14T11:17:51;28.50;;;15.90;;
68577;SDS011;61668;45.388;11.784;2022-10-14T11:20:48;26.80;;;15.90;;
68577;SDS011;61668;45.388;11.784;2022-10-14T11:23:45;30.00;;;16.10;;
68577;SDS011;61668;45.388;11.784;2022-10-14T11:26:23;27.30;;;15.70;;
68577;SDS011;61668;45.388;11.784;2022-10-14T11:29:40;27.60;;;15.80;;
68577;SDS011;61668;45.388;11.784;2022-10-14T11:35:34;26.60;;;13.20;;
68577;SDS011;61668;45.388;11.784;2022-10-14T11:38:33;25.90;;;14.70;;
68577;SDS011;61668;45.388;11.784;2022-10-14T11:41:41;26.50;;;12.90;;
68577;SDS011;61668;45.388;11.784;2022-10-14T11:44:21;27.90;;;15.40;;
68577;SDS011;61668;45.388;11.784;2022-10-14T11:47:28;28.40;;;14.50;;
68577;SDS011;61668;45.388;11.784;2022-10-14T11:50:18;25.90;;;13.90;;
68577;SDS011;61668;45.388;11.784;2022-10-14T11:55:59;26.30;;;13.60;;
68577;SDS011;61668;45.388;11.784;2022-10-14T11:58:30;24.00;;;14.00;;
68577;SDS011;61668;45.388;11.784;2022-10-14T12:01:00;26.30;;;15.60;;
68577;SDS011;61668;45.388;11.784;2022-10-14T12:06:58;27.70;;;13.60;;
68577;SDS011;61668;45.388;11.784;2022-10-14T12:09:40;25.50;;;14.90;;
68577;SDS011;61668;45.388;11.784;2022-10-14T12:12:10;29.80;;;15.20;;
68577;SDS011;61668;45.388;11.784;2022-10-14T12:14:59;28.60;;;14.70;;
68577;SDS011;61668;45.388;11.784;2022-10-14T12:17:45;29.70;;;14.90;;
68577;SDS011;61668;45.388;11.784;2022-10-14T12:23:26;27.20;;;13.70;;
68577;SDS011;61668;45.388;11.784;2022-10-14T12:28:49;28.60;;;14.60;;
68577;SDS011;61668;45.388;11.784;2022-10-14T12:31:32;27.00;;;14.50;;
68577;SDS011;61668;45.388;11.784;2022-10-14T12:36:36;26.40;;;14.00;;
68577;SDS011;61668;45.388;11.784;2022-10-14T12:44:22;30.00;;;13.20;;
68577;SDS011;61668;45.388;11.784;2022-10-14T12:46:50;25.10;;;13.50;;
68577;SDS011;61668;45.388;11.784;2022-10-14T12:49:32;24.70;;;13.60;;
68577;SDS011;61668;45.388;11.784;2022-10-14T12:52:02;27.00;;;14.20;;
68577;SDS011;61668;45.388;11.784;2022-10-14T12:54:30;28.30;;;14.70;;
68577;SDS011;61668;45.388;11.784;2022-10-14T12:57:00;26.30;;;14.30;;
68577;SDS011;61668;45.388;11.784;2022-10-14T12:59:34;25.30;;;13.80;;
68577;SDS011;61668;45.388;11.784;2022-10-14T13:02:04;28.90;;;14.70;;
68577;SDS011;61668;45.388;11.784;2022-10-14T13:04:52;24.10;;;12.50;;
68577;SDS011;61668;45.388;11.784;2022-10-14T13:09:58;23.90;;;13.00;;
68577;SDS011;61668;45.388;11.784;2022-10-14T13:15:00;27.70;;;14.10;;
68577;SDS011;61668;45.388;11.784;2022-10-14T13:23:25;28.00;;;13.70;;
68577;SDS011;61668;45.388;11.784;2022-10-14T13:26:14;27.20;;;13.40;;
68577;SDS011;61668;45.388;11.784;2022-10-14T13:28:55;25.80;;;13.90;;
68577;SDS011;61668;45.388;11.784;2022-10-14T13:37:31;25.30;;;13.50;;
68577;SDS011;61668;45.388;11.784;2022-10-14T13:43:05;25.00;;;13.40;;
68577;SDS011;61668;45.388;11.784;2022-10-14T13:45:42;26.00;;;13.10;;
68577;SDS011;61668;45.388;11.784;2022-10-14T13:48:14;24.50;;;13.40;;
68577;SDS011;61668;45.388;11.784;2022-10-14T13:50:41;24.50;;;13.30;;
68577;SDS011;61668;45.388;11.784;2022-10-14T13:53:20;28.80;;;13.80;;
68577;SDS011;61668;45.388;11.784;2022-10-14T13:55:48;22.80;;;12.90;;
68577;SDS011;61668;45.388;11.784;2022-10-14T13:58:20;25.10;;;12.90;;
68577;SDS011;61668;45.388;11.784;2022-10-14T14:03:26;25.00;;;12.20;;
68577;SDS011;61668;45.388;11.784;2022-10-14T14:05:55;23.50;;;12.40;;
68577;SDS011;61668;45.388;11.784;2022-10-14T14:08:25;22.70;;;11.60;;
68577;SDS011;61668;45.388;11.784;2022-10-14T14:10:55;24.20;;;13.50;;
68577;SDS011;61668;45.388;11.784;2022-10-14T14:13:42;23.90;;;12.30;;
68577;SDS011;61668;45.388;11.784;2022-10-14T14:16:19;26.20;;;13.40;;
68577;SDS011;61668;45.388;11.784;2022-10-14T14:18:48;25.00;;;13.00;;
68577;SDS011;61668;45.388;11.784;2022-10-14T14:21:20;24.70;;;13.60;;
68577;SDS011;61668;45.388;11.784;2022-10-14T14:23:50;30.70;;;13.10;;
68577;SDS011;61668;45.388;11.784;2022-10-14T14:26:33;25.30;;;12.90;;
68577;SDS011;61668;45.388;11.784;2022-10-14T14:29:21;24.00;;;12.90;;
68577;SDS011;61668;45.388;11.784;2022-10-14T14:31:50;28.90;;;14.10;;
68577;SDS011;61668;45.388;11.784;2022-10-14T14:34:17;25.80;;;14.00;;
68577;SDS011;61668;45.388;11.784;2022-10-14T14:36:45;23.60;;;13.30;;
68577;SDS011;61668;45.388;11.784;2022-10-14T14:39:28;24.70;;;13.20;;
68577;SDS011;61668;45.388;11.784;2022-10-14T14:41:57;26.40;;;13.50;;
68577;SDS011;61668;45.388;11.784;2022-10-14T14:44:26;26.80;;;14.00;;
68577;SDS011;61668;45.388;11.784;2022-10-14T14:46:58;25.30;;;13.30;;
68577;SDS011;61668;45.388;11.784;2022-10-14T14:49:30;27.40;;;13.90;;
68577;SDS011;61668;45.388;11.784;2022-10-14T14:51:59;28.90;;;15.40;;
68577;SDS011;61668;45.388;11.784;2022-10-14T14:54:26;23.10;;;13.30;;
68577;SDS011;61668;45.388;11.784;2022-10-14T14:59:37;24.50;;;13.10;;
68577;SDS011;61668;45.388;11.784;2022-10-14T15:02:18;29.70;;;13.40;;
68577;SDS011;61668;45.388;11.784;2022-10-14T15:04:45;28.10;;;12.80;;
68577;SDS011;61668;45.388;11.784;2022-10-14T15:07:16;27.40;;;13.80;;
68577;SDS011;61668;45.388;11.784;2022-10-14T15:09:55;27.90;;;13.20;;
68577;SDS011;61668;45.388;11.784;2022-10-14T15:12:25;24.80;;;13.30;;
68577;SDS011;61668;45.388;11.784;2022-10-14T15:15:27;26.30;;;13.50;;
68577;SDS011;61668;45.388;11.784;2022-10-14T15:18:20;25.60;;;13.10;;
68577;SDS011;61668;45.388;11.784;2022-10-14T15:20:46;26.80;;;13.20;;
68577;SDS011;61668;45.388;11.784;2022-10-14T15:26:35;23.40;;;12.10;;
68577;SDS011;61668;45.388;11.784;2022-10-14T15:31:36;28.00;;;13.80;;
68577;SDS011;61668;45.388;11.784;2022-10-14T15:34:03;23.50;;;11.80;;
68577;SDS011;61668;45.388;11.784;2022-10-14T15:36:32;24.50;;;12.30;;
68577;SDS011;61668;45.388;11.784;2022-10-14T15:38:58;25.20;;;12.20;;
68577;SDS011;61668;45.388;11.784;2022-10-14T15:41:28;25.20;;;12.60;;
68577;SDS011;61668;45.388;11.784;2022-10-14T15:43:54;26.00;;;12.90;;
68577;SDS011;61668;45.388;11.784;2022-10-14T15:46:21;23.80;;;13.50;;
68577;SDS011;61668;45.388;11.784;2022-10-14T15:49:22;25.50;;;13.30;;
68577;SDS011;61668;45.388;11.784;2022-10-14T15:51:53;25.80;;;12.60;;
68577;SDS011;61668;45.388;11.784;2022-10-14T15:54:18;26.80;;;13.20;;
68577;SDS011;61668;45.388;11.784;2022-10-14T15:56:45;25.90;;;13.30;;
68577;SDS011;61668;45.388;11.784;2022-10-14T15:59:12;25.30;;;13.20;;
68577;SDS011;61668;45.388;11.784;2022-10-14T16:01:41;26.40;;;12.90;;
68577;SDS011;61668;45.388;11.784;2022-10-14T16:04:15;25.00;;;13.20;;
68577;SDS011;61668;45.388;11.784;2022-10-14T16:06:44;26.00;;;13.40;;
68577;SDS011;61668;45.388;11.784;2022-10-14T16:09:10;25.30;;;13.10;;
68577;SDS011;61668;45.388;11.784;2022-10-14T16:11:36;26.90;;;14.00;;
68577;SDS011;61668;45.388;11.784;2022-10-14T16:14:02;26.10;;;13.70;;
68577;SDS011;61668;45.388;11.784;2022-10-14T16:16:34;28.30;;;14.70;;
68577;SDS011;61668;45.388;11.784;2022-10-14T16:19:02;25.80;;;14.20;;
68577;SDS011;61668;45.388;11.784;2022-10-14T16:21:28;24.90;;;13.80;;
68577;SDS011;61668;45.388;11.784;2022-10-14T16:23:54;24.00;;;13.00;;